Time;durP1;ratioP1;P1;durP2;ratioP2;P2;SDS_P1;SDS_P2;PMS_P1;PMS_P2;Temp;Humidity;BMP_temperature;BMP_pressure;BME280_temperature;BME280_humidity;BME280_pressure;Samples;Min_cycle;Max_cycle;Signal;HPM_P1;HPM_P2
2021/10/20 00:01:48;;;;;;;6.75;3.25;;;13.20;99.90;;;11.63;100.00;100865.06;2569658;30;137905;-38
2021/10/20 00:04:17;;;;;;;5.55;3.08;;;13.10;99.90;;;11.62;100.00;100858.75;2569094;30;138168;-38
2021/10/20 00:06:45;;;;;;;7.85;2.90;;;13.10;99.90;;;11.63;100.00;100852.22;2568498;30;137135;-38
2021/10/20 00:09:12;;;;;;;6.22;3.35;;;13.10;99.90;;;11.61;100.00;100843.41;2569141;30;137384;-38
2021/10/20 00:11:40;;;;;;;7.00;3.28;;;13.10;99.90;;;11.61;100.00;100845.34;2565344;30;138304;-38
2021/10/20 00:14:11;;;;;;;5.65;3.45;;;13.10;99.90;;;11.59;100.00;100845.53;2569354;30;138254;-38
2021/10/20 00:16:39;;;;;;;5.25;3.00;;;13.10;99.90;;;11.56;100.00;100848.72;2569249;30;138194;-38
2021/10/20 00:19:06;;;;;;;5.22;3.08;;;13.10;99.90;;;11.56;100.00;100836.97;2569266;30;138281;-38
2021/10/20 00:21:34;;;;;;;7.20;3.20;;;13.00;99.90;;;11.58;100.00;100840.31;2569354;30;137866;-38
2021/10/20 00:24:02;;;;;;;;;;;13.10;99.90;;;11.49;100.00;100823.31;2569466;30;137167;-38
2021/10/20 00:26:29;;;;;;;5.35;3.00;;;13.00;99.90;;;11.55;100.00;100836.09;2569092;30;136824;-38
2021/10/20 00:28:59;;;;;;;6.85;3.03;;;13.00;99.90;;;11.50;100.00;100825.00;2569590;30;138319;-38
2021/10/20 00:31:27;;;;;;;4.65;2.70;;;13.00;99.90;;;11.54;99.84;100830.84;2568924;30;137354;-38
2021/10/20 00:33:54;;;;;;;5.40;3.03;;;13.00;99.90;;;11.51;100.00;100826.69;2569853;30;138198;-38
2021/10/20 00:36:22;;;;;;;7.22;3.47;;;13.00;99.90;;;11.49;100.00;100823.31;2569954;30;137790;-38
2021/10/20 00:38:50;;;;;;;6.90;2.95;;;13.00;99.90;;;11.48;100.00;100821.66;2569674;30;138418;-38
2021/10/20 00:41:18;;;;;;;5.25;2.80;;;13.00;99.90;;;11.48;100.00;100821.66;2568733;30;138215;-38
2021/10/20 00:43:46;;;;;;;5.65;3.05;;;13.00;99.90;;;11.48;100.00;100821.66;2570550;30;138745;-38
2021/10/20 00:46:29;;;;;;;5.32;3.05;;;13.00;99.90;;;11.42;100.00;100809.69;2571765;30;137314;-38
2021/10/20 00:48:58;;;;;;;5.63;2.80;;;12.90;99.90;;;11.43;100.00;100810.53;2569125;30;138285;-38
2021/10/20 00:51:26;;;;;;;5.65;2.90;;;12.90;99.90;;;11.40;100.00;100803.63;2569555;30;138058;-39
2021/10/20 00:53:57;;;;;;;5.97;2.65;;;12.90;99.90;;;11.38;100.00;100803.00;2569771;30;138439;-38
2021/10/20 00:56:26;;;;;;;4.78;2.78;;;12.90;99.90;;;11.36;99.42;100792.28;2567214;30;137923;-38
2021/10/20 00:58:58;;;;;;;4.53;2.90;;;12.90;99.90;;;11.41;99.65;100799.81;2567193;30;137526;-38
2021/10/20 01:01:25;;;;;;;5.60;2.45;;;12.90;99.90;;;11.41;100.00;100799.81;2569059;30;137347;-38
2021/10/20 01:03:53;;;;;;;5.15;2.95;;;12.90;99.90;;;11.37;100.00;100799.41;2569613;30;138626;-38
2021/10/20 01:06:20;;;;;;;5.82;2.35;;;12.90;99.90;;;11.37;100.00;100796.69;2568620;30;137359;-38
2021/10/20 01:08:48;;;;;;;5.70;3.03;;;12.90;99.90;;;11.36;99.81;100791.47;2569220;30;137058;-38
2021/10/20 01:11:16;;;;;;;5.53;2.85;;;12.90;99.90;;;11.33;100.00;100787.25;2569897;30;137928;-38
2021/10/20 01:13:43;;;;;;;;;;;12.80;99.90;;;11.32;100.00;100777.38;2570069;30;137118;-38
2021/10/20 01:16:11;;;;;;;6.68;2.90;;;12.80;99.90;;;11.31;100.00;100778.44;2569296;30;136789;-38
2021/10/20 01:18:39;;;;;;;;;;;12.80;99.90;;;11.27;100.00;100769.03;2569672;30;138078;-38
2021/10/20 01:21:07;;;;;;;6.18;2.97;;;12.80;99.90;;;11.27;100.00;100769.03;2566501;30;137085;-38
2021/10/20 01:23:34;;;;;;;5.07;2.78;;;12.80;99.90;;;11.27;100.00;100757.25;2567734;30;139333;-38
2021/10/20 01:26:02;;;;;;;4.68;2.70;;;12.80;99.90;;;11.27;100.00;100752.63;2568505;30;136890;-38
2021/10/20 01:28:30;;;;;;;6.22;2.92;;;12.80;99.90;;;11.25;100.00;100749.28;2568999;30;138509;-38
2021/10/20 01:30:57;;;;;;;5.72;2.85;;;12.70;99.90;;;11.31;100.00;100744.84;2571291;30;136732;-38
2021/10/20 01:33:25;;;;;;;5.03;2.85;;;12.80;99.90;;;11.34;100.00;100738.94;2568260;30;137577;-38
2021/10/20 01:35:52;;;;;;;5.15;3.05;;;12.80;99.90;;;11.39;100.00;100743.72;2567242;30;137231;-39
2021/10/20 01:38:20;;;;;;;4.38;2.65;;;12.80;99.90;;;11.37;99.95;100736.59;2568635;30;138309;-38
2021/10/20 01:40:48;;;;;;;5.00;2.75;;;12.80;99.90;;;11.36;99.99;100737.66;2567759;30;138134;-38
2021/10/20 01:43:15;;;;;;;5.82;2.75;;;12.80;99.90;;;11.33;99.97;100737.28;2567524;30;137548;-38
2021/10/20 01:45:43;;;;;;;6.88;3.20;;;12.80;99.90;;;11.34;99.68;100734.31;2569467;30;137048;-38
2021/10/20 01:48:10;;;;;;;7.88;3.20;;;12.80;99.90;;;11.35;99.58;100724.22;2566956;30;138984;-38
2021/10/20 01:50:38;;;;;;;4.15;2.53;;;12.80;99.90;;;11.35;99.45;100718.75;2569325;30;137231;-38
2021/10/20 01:53:06;;;;;;;5.30;2.97;;;12.80;99.90;;;11.36;99.43;100723.16;2567267;30;138267;-38
2021/10/20 01:55:33;;;;;;;4.55;2.85;;;12.80;99.90;;;11.32;99.49;100721.94;2569404;30;136929;-38
2021/10/20 01:58:01;;;;;;;5.90;3.00;;;12.80;99.90;;;11.27;99.98;100727.19;2568477;30;138347;-38
2021/10/20 02:00:28;;;;;;;5.10;3.30;;;12.80;99.90;;;11.28;99.30;100723.44;2569222;30;138291;-38
2021/10/20 02:02:56;;;;;;;5.63;2.90;;;12.80;99.90;;;11.22;99.83;100715.06;2568951;30;139203;-38
2021/10/20 02:05:23;;;;;;;4.90;2.80;;;12.70;99.90;;;11.21;99.82;100727.03;2570348;30;137435;-38
2021/10/20 02:07:51;;;;;;;4.63;2.80;;;12.70;99.90;;;11.15;99.77;100727.09;2569591;30;138438;-38
2021/10/20 02:10:18;;;;;;;5.53;2.75;;;12.70;99.90;;;11.08;100.00;100722.47;2567483;30;137959;-38
2021/10/20 02:12:46;;;;;;;5.47;2.85;;;12.60;99.90;;;10.98;100.00;100713.09;2567978;30;138715;-38
2021/10/20 02:15:13;;;;;;;5.60;2.90;;;12.60;99.90;;;10.99;100.00;100712.03;2570100;30;138377;-38
2021/10/20 02:17:41;;;;;;;5.80;3.00;;;12.50;99.90;;;10.96;100.00;100707.88;2581258;30;139024;-39
2021/10/20 02:20:14;;;;;;;5.65;2.70;;;12.50;99.90;;;10.93;100.00;100705.56;2566913;30;137388;-40
2021/10/20 02:22:44;;;;;;;6.50;2.90;;;12.40;99.90;;;10.85;100.00;100698.47;2567896;30;138885;-40
2021/10/20 02:25:12;;;;;;;4.93;2.70;;;12.40;99.90;;;10.93;100.00;100702.84;2567623;30;137186;-40
2021/10/20 02:27:40;;;;;;;6.60;2.95;;;12.50;99.90;;;10.92;100.00;100692.97;2568990;30;138594;-39
2021/10/20 02:30:09;;;;;;;4.85;2.80;;;12.40;99.90;;;10.92;100.00;100690.25;2569040;30;138106;-40
2021/10/20 02:32:37;;;;;;;4.10;2.72;;;12.40;99.90;;;10.89;100.00;100687.97;2568139;30;138748;-40
2021/10/20 02:35:07;;;;;;;4.38;2.75;;;12.40;99.90;;;10.88;100.00;100680.84;2567597;30;136771;-40
2021/10/20 02:37:35;;;;;;;4.88;2.80;;;12.40;99.90;;;10.92;100.00;100673.88;2568188;30;138285;-40
2021/10/20 02:40:06;;;;;;;5.10;3.28;;;12.40;99.90;;;10.90;100.00;100668.63;2567833;30;136851;-39
2021/10/20 02:42:34;;;;;;;7.05;3.00;;;12.40;99.90;;;10.91;100.00;100672.19;2567481;30;138236;-40
2021/10/20 02:45:01;;;;;;;4.70;2.45;;;12.40;99.90;;;10.90;100.00;100674.06;2567807;30;137357;-39
2021/10/20 02:47:29;;;;;;;4.65;2.50;;;12.40;99.90;;;10.90;100.00;100665.06;2568662;30;138181;-40
2021/10/20 02:49:56;;;;;;;5.30;3.10;;;12.40;99.90;;;10.90;100.00;100656.88;2567181;30;137415;-40
2021/10/20 02:52:23;;;;;;;4.78;2.72;;;12.40;99.90;;;10.92;100.00;100665.69;2568082;30;139185;-40
2021/10/20 02:54:51;;;;;;;6.75;2.95;;;12.40;99.90;;;10.91;100.00;100664.00;2568411;30;137578;-40
2021/10/20 02:57:18;;;;;;;4.55;2.70;;;12.40;99.90;;;10.87;100.00;100658.13;2568192;30;138324;-39
2021/10/20 02:59:47;;;;;;;5.50;3.20;;;12.40;99.90;;;10.88;100.00;100653.53;2567884;30;137138;-40
2021/10/20 03:02:15;;;;;;;5.85;2.72;;;12.40;99.90;;;10.90;100.00;100651.41;2566755;30;137424;-40
2021/10/20 03:04:42;;;;;;;;;;;12.40;99.90;;;10.91;100.00;100642.19;2568936;30;137399;-39
2021/10/20 03:07:10;;;;;;;5.05;2.95;;;12.40;99.90;;;10.87;100.00;100640.91;2568025;30;138345;-40
2021/10/20 03:09:37;;;;;;;6.03;3.20;;;12.40;99.90;;;10.84;100.00;100650.41;2566244;30;136810;-40
2021/10/20 03:12:05;;;;;;;6.25;3.20;;;12.40;99.90;;;10.87;100.00;100647.22;2567338;30;137440;-40
2021/10/20 03:14:32;;;;;;;4.70;3.22;;;12.40;99.90;;;10.87;100.00;100651.84;2567399;30;137247;-40
2021/10/20 03:17:00;;;;;;;4.63;2.90;;;12.40;99.90;;;10.85;100.00;100649.34;2567858;30;137295;-40
2021/10/20 03:19:27;;;;;;;6.25;2.83;;;12.40;99.90;;;10.83;100.00;100635.06;2568833;30;136774;-40
2021/10/20 03:21:55;;;;;;;6.05;2.92;;;12.30;99.90;;;10.82;100.00;100635.28;2568595;30;138357;-40
2021/10/20 03:24:22;;;;;;;6.07;3.47;;;12.30;99.90;;;10.80;100.00;100646.44;2566864;30;136842;-39
2021/10/20 03:26:50;;;;;;;7.68;3.40;;;12.30;99.90;;;10.82;100.00;100635.28;2567458;30;138998;-40
2021/10/20 03:29:17;;;;;;;6.55;3.20;;;12.30;99.90;;;10.83;100.00;100640.53;2568424;30;137066;-40
2021/10/20 03:31:45;;;;;;;6.75;3.80;;;12.30;99.90;;;10.86;100.00;100637.38;2568217;30;138352;-40
2021/10/20 03:34:12;;;;;;;5.50;3.00;;;12.30;99.90;;;10.86;100.00;100633.78;2567313;30;137181;-39
2021/10/20 03:36:40;;;;;;;4.00;2.92;;;12.30;99.90;;;10.85;100.00;100637.56;2567698;30;139219;-40
2021/10/20 03:39:07;;;;;;;6.30;3.22;;;12.30;99.90;;;10.88;100.00;100639.88;2567346;30;137503;-40
2021/10/20 03:41:35;;;;;;;5.90;3.05;;;12.40;99.90;;;10.94;100.00;100633.53;2565403;30;138802;-40
2021/10/20 03:44:02;;;;;;;6.18;3.03;;;12.40;99.90;;;10.95;100.00;100627.03;2568673;30;137615;-40
2021/10/20 03:46:30;;;;;;;4.68;2.80;;;12.40;99.90;;;11.00;100.00;100619.00;2565634;30;137119;-40
2021/10/20 03:48:58;;;;;;;8.40;2.95;;;12.50;99.90;;;11.04;99.85;100622.97;2567838;30;136922;-40
2021/10/20 03:51:25;;;;;;;9.80;2.95;;;12.50;99.90;;;11.18;99.29;100614.69;2567619;30;138295;-40
2021/10/20 03:53:52;;;;;;;6.03;2.95;;;12.60;99.90;;;11.25;99.67;100620.09;2567427;30;137163;-40
2021/10/20 03:56:20;;;;;;;5.18;2.42;;;12.70;99.90;;;11.29;99.12;100610.41;2568409;30;137430;-40
2021/10/20 03:58:47;;;;;;;6.50;2.97;;;12.70;99.90;;;11.36;98.60;100616.66;2568491;30;136973;-39
2021/10/20 04:01:15;;;;;;;5.22;3.17;;;12.80;99.90;;;11.40;98.65;100617.03;2568433;30;137974;-40
2021/10/20 04:03:42;;;;;;;4.68;2.67;;;12.80;99.90;;;11.40;98.73;100603.38;2567307;30;138163;-40
2021/10/20 04:06:10;;;;;;;8.05;2.92;;;12.80;99.90;;;11.44;98.67;100604.63;2565713;30;138716;-40
2021/10/20 04:08:37;;;;;;;4.88;3.05;;;12.90;99.90;;;11.54;98.18;100604.94;2567403;30;137680;-40
2021/10/20 04:11:04;;;;;;;6.82;3.17;;;12.90;99.90;;;11.57;98.18;100601.75;2567538;30;138850;-40
2021/10/20 04:13:32;;;;;;;6.20;3.05;;;13.00;99.90;;;11.65;97.83;100593.25;2568353;30;138496;-40
2021/10/20 04:15:59;;;;;;;5.28;3.30;;;13.00;99.90;;;11.69;97.15;100587.34;2567181;30;137091;-40
2021/10/20 04:18:27;;;;;;;5.22;3.00;;;13.10;99.90;;;11.68;96.95;100582.97;2567290;30;138525;-40
2021/10/20 04:20:54;;;;;;;5.60;3.03;;;13.10;99.90;;;11.71;96.83;100590.69;2567945;30;138213;-40
2021/10/20 04:23:22;;;;;;;4.97;2.75;;;13.10;99.90;;;11.69;96.85;100574.50;2566257;30;138365;-40
2021/10/20 04:25:49;;;;;;;4.88;3.10;;;13.10;99.90;;;11.64;96.81;100588.84;2567405;30;138994;-40
2021/10/20 04:28:17;;;;;;;7.20;3.28;;;13.10;99.90;;;11.57;96.86;100587.25;2564837;30;136964;-40
2021/10/20 04:30:44;;;;;;;6.07;3.45;;;13.00;99.90;;;11.51;97.35;100580.78;2567775;30;138496;-40
2021/10/20 04:33:12;;;;;;;6.97;3.40;;;13.00;99.90;;;11.46;97.51;100566.97;2568150;30;136890;-40
2021/10/20 04:35:39;;;;;;;6.78;3.00;;;13.00;99.90;;;11.44;97.57;100577.28;2567801;30;138419;-40
2021/10/20 04:38:07;;;;;;;7.10;3.10;;;12.90;99.90;;;11.37;97.98;100569.97;2567356;30;137396;-40
2021/10/20 04:40:34;;;;;;;6.65;3.53;;;12.90;99.90;;;11.32;97.93;100575.28;2565753;30;138429;-40
2021/10/20 04:43:02;;;;;;;5.68;3.25;;;12.80;99.90;;;11.33;98.04;100570.66;2568731;30;136626;-40
2021/10/20 04:45:30;;;;;;;5.50;3.47;;;12.80;99.90;;;11.31;98.45;100570.88;2566304;30;138514;-40
2021/10/20 04:47:57;;;;;;;6.30;3.70;;;12.80;99.90;;;11.30;98.36;100563.75;2568799;30;137370;-40
2021/10/20 04:50:25;;;;;;;7.65;3.17;;;12.80;99.90;;;11.27;98.50;100560.63;2568843;30;136812;-40
2021/10/20 04:52:53;;;;;;;6.45;3.50;;;12.70;99.90;;;11.23;98.37;100550.16;2569014;30;137069;-40
2021/10/20 04:55:20;;;;;;;6.05;2.90;;;12.70;99.90;;;11.18;99.03;100546.44;2564705;30;139415;-40
2021/10/20 04:57:53;;;;;;;5.53;3.45;;;12.70;99.90;;;11.18;99.16;100555.44;2567829;30;136927;-40
2021/10/20 05:00:23;;;;;;;7.20;3.72;;;12.70;99.90;;;11.18;99.36;100554.63;2566896;30;138951;-40
2021/10/20 05:02:51;;;;;;;5.65;3.50;;;12.70;99.90;;;11.18;99.39;100549.16;2568382;30;137313;-40
2021/10/20 05:05:19;;;;;;;5.53;3.70;;;12.70;99.90;;;11.18;99.63;100540.97;2567792;30;138453;-40
2021/10/20 05:07:50;;;;;;;5.45;3.22;;;12.70;99.90;;;11.22;99.12;100536.72;2566834;30;137876;-40
2021/10/20 05:10:23;;;;;;;6.25;3.13;;;12.70;99.90;;;11.18;99.16;100539.06;2567141;30;140201;-40
2021/10/20 05:12:50;;;;;;;6.65;3.60;;;12.70;99.90;;;11.19;99.06;100529.81;2567526;30;138392;-40
2021/10/20 05:15:18;;;;;;;5.75;3.15;;;12.60;99.90;;;11.24;99.12;100523.69;2567345;30;138436;-40
2021/10/20 05:17:47;;;;;;;6.32;3.30;;;12.70;99.90;;;11.22;98.98;100512.16;2566927;30;137666;-40
2021/10/20 05:20:17;;;;;;;6.18;3.40;;;12.70;99.90;;;11.22;99.23;100515.69;2567467;30;137476;-40
2021/10/20 05:22:45;;;;;;;8.27;3.88;;;12.70;99.90;;;11.18;98.78;100500.84;2567254;30;137484;-40
2021/10/20 05:25:16;;;;;;;5.57;3.45;;;12.70;99.90;;;11.23;98.88;100505.63;2565326;30;136864;-40
2021/10/20 05:27:44;;;;;;;6.32;3.88;;;12.70;99.90;;;11.23;99.08;100500.16;2566145;30;137021;-40
2021/10/20 05:30:13;;;;;;;7.05;3.65;;;12.70;99.90;;;11.22;99.33;100499.31;2565332;30;138730;-40
2021/10/20 05:32:41;;;;;;;6.43;3.65;;;12.70;99.90;;;11.24;99.22;100501.84;2566762;30;137302;-40
2021/10/20 05:35:15;;;;;;;6.10;3.33;;;12.70;99.90;;;11.26;99.08;100486.06;2565611;30;138063;-40
2021/10/20 05:37:43;;;;;;;7.18;3.55;;;12.70;99.90;;;11.29;99.08;100488.34;2568752;30;137673;-40
2021/10/20 05:40:11;;;;;;;6.28;3.72;;;12.70;99.90;;;11.27;99.64;100470.50;2567921;30;137411;-40
2021/10/20 05:42:39;;;;;;;7.43;3.42;;;12.70;99.90;;;11.32;99.24;100468.75;2567557;30;136748;-40
2021/10/20 05:45:07;;;;;;;6.07;3.80;;;12.80;99.90;;;11.34;99.42;100458.44;2567429;30;137321;-40
2021/10/20 05:47:34;;;;;;;7.13;3.75;;;12.80;99.90;;;11.37;99.40;100455.25;2568642;30;136713;-40
2021/10/20 05:50:06;;;;;;;8.18;4.20;;;12.80;99.90;;;11.41;99.11;100449.38;2569271;30;138973;-40
2021/10/20 05:52:34;;;;;;;6.45;3.80;;;12.80;99.90;;;11.46;98.78;100450.34;2566177;30;137683;-40
2021/10/20 05:55:02;;;;;;;6.82;4.10;;;12.90;99.90;;;11.56;98.39;100449.81;2567422;30;137368;-40
2021/10/20 05:57:29;;;;;;;7.55;3.60;;;12.90;99.90;;;11.58;97.90;100434.03;2569073;30;136874;-40
2021/10/20 05:59:57;;;;;;;7.32;3.78;;;13.00;99.90;;;11.61;97.95;100427.28;2569111;30;137248;-40
2021/10/20 06:02:25;;;;;;;7.63;4.00;;;13.10;99.90;;;11.63;97.82;100428.69;2568155;30;137784;-40
2021/10/20 06:04:52;;;;;;;6.13;3.53;;;13.00;99.90;;;11.68;97.45;100428.00;2567313;30;137199;-40
2021/10/20 06:07:20;;;;;;;5.43;3.63;;;13.10;99.90;;;11.64;97.97;100433.09;2567895;30;137104;-39
2021/10/20 06:09:47;;;;;;;5.45;3.45;;;13.10;99.90;;;11.66;97.59;100422.78;2567583;30;137238;-40
2021/10/20 06:12:15;;;;;;;8.15;3.78;;;13.10;99.90;;;11.70;97.12;100425.06;2567694;30;138359;-40
2021/10/20 06:14:43;;;;;;;5.93;3.42;;;13.10;99.90;;;11.76;96.84;100416.75;2568209;30;139068;-40
2021/10/20 06:17:10;;;;;;;5.80;3.30;;;13.10;99.90;;;11.77;96.91;100403.94;2568331;30;138197;-40
2021/10/20 06:19:38;;;;;;;7.60;3.40;;;13.20;99.90;;;11.86;95.74;100408.00;2567576;30;139444;-40
2021/10/20 06:22:05;;;;;;;5.95;3.45;;;13.20;99.90;;;11.88;96.01;100416.81;2566225;30;137426;-40
2021/10/20 06:24:33;;;;;;;7.20;3.25;;;13.30;99.90;;;11.92;95.47;100436.34;2568409;30;138611;-40
2021/10/20 06:27:00;;;;;;;6.55;3.38;;;13.30;99.90;;;11.97;96.00;100439.19;2567596;30;137704;-40
2021/10/20 06:29:28;;;;;;;5.53;3.50;;;13.40;99.90;;;11.96;95.58;100414.84;2567924;30;138383;-40
2021/10/20 06:31:56;;;;;;;7.20;3.13;;;13.40;99.90;;;11.99;95.29;100409.72;2568126;30;136752;-40
2021/10/20 06:34:23;;;;;;;7.25;3.58;;;13.40;99.90;;;12.02;94.94;100406.56;2569974;30;138406;-40
2021/10/20 06:36:51;;;;;;;8.20;3.92;;;13.40;99.90;;;12.05;94.77;100411.56;2568549;30;137349;-40
2021/10/20 06:39:21;;;;;;;7.50;3.47;;;13.40;99.90;;;12.07;94.40;100403.13;2568068;30;138253;-40
2021/10/20 06:41:49;;;;;;;5.82;3.22;;;13.50;99.90;;;12.07;94.91;100400.41;2568040;30;137422;-40
2021/10/20 06:44:18;;;;;;;7.18;3.60;;;13.50;99.90;;;12.06;94.74;100385.06;2567044;30;137500;-40
2021/10/20 06:46:47;;;;;;;7.82;4.00;;;13.50;99.90;;;12.07;95.70;100373.06;2568717;30;137658;-40
2021/10/20 06:49:15;;;;;;;6.15;3.63;;;13.50;99.90;;;12.15;94.54;100372.72;2565877;30;138348;-40
2021/10/20 06:51:44;;;;;;;8.13;3.92;;;13.60;99.90;;;12.25;94.64;100391.28;2564794;30;137591;-40
2021/10/20 06:54:18;;;;;;;6.78;3.92;;;13.60;99.90;;;12.29;94.02;100408.06;2566959;30;138125;-40
2021/10/20 06:56:51;;;;;;;7.45;3.70;;;13.60;99.90;;;12.36;94.46;100414.28;2567441;30;138080;-40
2021/10/20 06:59:20;;;;;;;6.82;3.58;;;13.70;99.90;;;12.39;95.31;100391.91;2568419;30;136909;-40
2021/10/20 07:01:47;;;;;;;5.82;3.17;;;13.70;99.90;;;12.44;95.07;100389.28;2568725;30;137789;-40
2021/10/20 07:04:15;;;;;;;;;;;13.80;99.90;;;12.48;94.53;100387.78;2566334;30;138239;-40
2021/10/20 07:06:43;;;;;;;6.30;3.50;;;13.80;99.90;;;12.55;94.35;100382.19;2568879;30;137150;-40
2021/10/20 07:09:10;;;;;;;6.63;3.70;;;13.90;99.90;;;12.62;93.76;100377.44;2566968;30;138730;-39
2021/10/20 07:11:38;;;;;;;7.32;3.40;;;13.90;99.90;;;12.71;93.76;100385.28;2568334;30;136803;-40
2021/10/20 07:14:05;;;;;;;6.70;3.63;;;14.00;99.90;;;12.73;92.91;100392.22;2568436;30;138163;-40
2021/10/20 07:16:34;;;;;;;6.60;3.78;;;14.00;99.90;;;12.79;93.30;100388.50;2568044;30;136857;-40
2021/10/20 07:19:07;;;;;;;7.07;3.50;;;14.10;99.90;;;12.83;92.97;100390.78;2568473;30;138301;-40
2021/10/20 07:21:36;;;;;;;6.57;3.45;;;14.20;99.90;;;12.91;92.06;100387.66;2568021;30;136868;-40
2021/10/20 07:24:04;;;;;;;7.50;3.58;;;14.20;99.90;;;12.95;91.88;100383.38;2566854;30;138286;-40
2021/10/20 07:26:31;;;;;;;;;;;14.30;99.90;;;12.94;91.85;100376.22;2568110;30;136923;-40
2021/10/20 07:29:00;;;;;;;6.03;3.42;;;14.30;99.90;;;12.99;92.17;100390.03;2567390;30;139271;-40
2021/10/20 07:31:31;;;;;;;7.65;3.90;;;14.30;99.90;;;13.09;91.01;100392.16;2567820;30;138361;-40
2021/10/20 07:34:00;;;;;;;6.65;3.47;;;14.40;99.90;;;13.05;91.81;100385.50;2566031;30;137358;-40
2021/10/20 07:36:29;;;;;;;8.35;3.60;;;14.40;99.90;;;13.08;91.82;100391.34;2568593;30;136818;-40
2021/10/20 07:38:57;;;;;;;6.18;4.00;;;14.50;99.90;;;13.17;91.63;100388.25;2567706;30;137355;-40
2021/10/20 07:41:24;;;;;;;;;;;14.50;99.90;;;13.19;91.01;100402.53;2567591;30;137509;-40
2021/10/20 07:43:52;;;;;;;6.57;3.33;;;14.50;99.90;;;13.26;91.37;100405.13;2567822;30;137305;-40
2021/10/20 07:46:20;;;;;;;7.93;3.63;;;14.60;99.90;;;13.33;90.56;100403.94;2564882;30;137450;-40
2021/10/20 07:48:47;;;;;;;5.65;3.45;;;14.60;99.90;;;13.30;91.18;100398.09;2568293;30;137011;-40
2021/10/20 07:51:15;;;;;;;;;;;14.60;99.90;;;13.36;92.08;100397.97;2568107;30;136982;-40
2021/10/20 07:53:42;;;;;;;6.38;3.72;;;14.70;99.90;;;13.43;92.12;100370.47;2566957;30;139324;-40
2021/10/20 07:56:10;;;;;;;7.55;4.15;;;14.70;99.90;;;13.46;90.90;100380.94;2567010;30;136928;-40
2021/10/20 07:58:38;;;;;;;7.78;3.85;;;14.70;99.90;;;13.54;91.19;100367.94;2566386;30;137493;-40
2021/10/20 08:01:05;;;;;;;;;;;14.80;99.90;;;13.58;91.15;100361.72;2568612;30;137855;-40
2021/10/20 08:03:33;;;;;;;5.82;3.50;;;14.80;99.90;;;13.63;90.90;100339.91;2568194;30;139174;-40
2021/10/20 08:06:01;;;;;;;6.47;3.58;;;14.90;99.90;;;13.63;91.12;100339.91;2567777;30;137825;-40
2021/10/20 08:08:28;;;;;;;8.07;4.00;;;14.90;99.90;;;13.63;90.72;100339.03;2566496;30;138241;-40
2021/10/20 08:10:56;;;;;;;;;;;14.90;99.90;;;13.66;91.25;100344.88;2567829;30;137332;-40
2021/10/20 08:13:24;;;;;;;6.43;3.58;;;15.00;99.90;;;13.70;91.00;100331.53;2567577;30;138005;-40
2021/10/20 08:15:51;;;;;;;6.78;3.95;;;15.00;99.90;;;13.70;90.99;100314.25;2569021;30;136870;-40
2021/10/20 08:18:19;;;;;;;7.07;4.25;;;15.00;99.90;;;13.78;90.81;100294.63;2573633;30;138448;-40
2021/10/20 08:20:46;;;;;;;5.85;3.45;;;15.00;99.90;;;13.79;90.84;100274.38;2570162;30;136696;-40
2021/10/20 08:23:14;;;;;;;5.88;3.47;;;15.10;99.90;;;13.79;90.68;100267.00;2568361;30;138249;-40
2021/10/20 08:25:42;;;;;;;6.68;3.90;;;15.10;99.90;;;13.81;90.16;100258.53;2566038;30;137175;-40
2021/10/20 08:28:10;;;;;;;7.05;3.97;;;15.10;99.90;;;13.83;90.48;100261.00;2571416;30;139187;-40
2021/10/20 08:30:37;;;;;;;5.53;3.55;;;15.10;99.90;;;13.84;90.19;100285.44;2569198;30;137664;-40
2021/10/20 08:33:06;;;;;;;8.07;4.00;;;15.10;99.90;;;13.88;89.93;100270.16;2568159;30;137252;-40
2021/10/20 08:35:37;;;;;;;7.60;4.20;;;15.20;99.90;;;14.00;91.17;100270.09;2569095;30;137598;-40
2021/10/20 08:38:05;;;;;;;7.32;4.35;;;15.20;99.90;;;14.14;90.61;100253.28;2568906;30;137560;-40
2021/10/20 08:40:45;;;;;;;6.93;4.15;;;15.30;99.90;;;14.26;88.92;100272.38;2566400;30;137011;-40
2021/10/20 08:43:17;;;;;;;7.03;3.83;;;15.40;99.90;;;14.38;89.02;100262.16;2568340;30;137338;-39
2021/10/20 08:45:47;;;;;;;7.07;4.63;;;15.60;99.90;;;14.54;89.29;100268.72;2568283;30;137007;-40
2021/10/20 08:48:21;;;;;;;6.25;4.03;;;15.70;99.90;;;14.62;87.63;100273.75;2569241;30;138188;-40
2021/10/20 08:50:58;;;;;;;6.03;3.83;;;15.80;99.90;;;14.70;86.99;100277.13;2570170;30;138223;-40
2021/10/20 08:53:27;;;;;;;6.75;3.90;;;15.90;99.90;;;14.74;86.97;100265.44;2567649;30;138384;-40
2021/10/20 08:55:55;;;;;;;8.27;4.05;;;15.90;99.90;;;14.79;87.30;100260.00;2569826;30;138323;-40
2021/10/20 08:58:23;;;;;;;7.38;4.00;;;16.00;99.90;;;14.84;86.47;100270.25;2570842;30;137381;-40
2021/10/20 09:00:51;;;;;;;7.43;3.72;;;16.10;99.90;;;14.93;86.68;100252.22;2567391;30;137514;-41
2021/10/20 09:03:19;;;;;;;8.73;4.35;;;16.20;99.90;;;15.02;86.90;100265.53;2570475;30;137093;-40
2021/10/20 09:05:46;;;;;;;6.85;4.18;;;16.20;99.90;;;15.12;85.67;100270.28;2569119;30;136802;-40
2021/10/20 09:08:14;;;;;;;7.60;4.40;;;16.30;99.90;;;15.11;85.71;100272.22;2569088;30;138186;-40
2021/10/20 09:10:46;;;;;;;6.75;4.18;;;16.30;99.90;;;15.09;85.54;100266.16;2568612;30;137426;-40
2021/10/20 09:13:14;;;;;;;7.97;4.10;;;16.30;99.90;;;15.06;86.27;100270.22;2570086;30;137633;-40
2021/10/20 09:15:42;;;;;;;;;;;16.30;99.90;;;15.05;86.57;100243.03;2569951;30;137861;-40
2021/10/20 09:18:14;;;;;;;5.93;3.92;;;16.30;99.90;;;15.06;87.33;100225.47;2570145;30;137393;-40
2021/10/20 09:20:46;;;;;;;10.10;4.28;;;16.30;99.90;;;14.99;88.83;100228.41;2568531;30;136828;-40
2021/10/20 09:23:21;;;;;;;8.98;4.13;;;16.30;99.90;;;14.91;88.93;100229.66;2567030;30;138228;-40
2021/10/20 09:25:56;;;;;;;5.80;3.95;;;16.20;99.90;;;14.90;89.37;100233.50;2569281;30;138288;-39
2021/10/20 09:28:24;;;;;;;7.00;4.38;;;16.20;99.90;;;14.89;89.00;100212.63;2569762;30;138007;-40
2021/10/20 09:31:01;;;;;;;6.15;4.00;;;16.20;99.90;;;14.87;87.78;100212.06;2568236;30;137300;-40
2021/10/20 09:33:35;;;;;;;5.30;3.90;;;16.20;99.90;;;14.83;87.83;100197.19;2567624;30;139154;-40
2021/10/20 09:36:09;;;;;;;6.97;4.07;;;16.10;99.90;;;14.87;86.57;100211.25;2568667;30;138144;-40
2021/10/20 09:38:40;;;;;;;8.15;4.22;;;16.10;99.90;;;14.86;86.97;100202.16;2565153;30;139159;-40
2021/10/20 09:41:09;;;;;;;7.25;4.00;;;16.10;99.90;;;14.93;87.19;100188.25;2569807;30;136787;-40
2021/10/20 09:43:56;;;;;;;7.32;4.10;;;16.20;99.90;;;14.93;85.60;100208.28;2567014;30;138411;-40
2021/10/20 09:46:38;;;;;;;7.78;3.55;;;16.20;99.90;;;14.96;86.17;100217.94;2569680;30;136788;-40
2021/10/20 09:49:23;;;;;;;6.07;3.60;;;16.20;99.90;;;15.01;84.41;100217.16;2569611;30;140275;-40
2021/10/20 09:51:58;;;;;;;7.25;4.15;;;16.20;99.90;;;15.15;86.33;100217.59;2569145;30;138241;-40
2021/10/20 09:54:29;;;;;;;7.05;3.97;;;16.30;99.90;;;15.20;85.64;100221.22;2568129;30;138442;-40
2021/10/20 09:57:00;;;;;;;6.93;3.85;;;16.40;99.90;;;15.27;84.33;100218.25;2568593;30;137048;-40
2021/10/20 09:59:30;;;;;;;6.88;4.38;;;16.50;99.90;;;15.28;83.61;100214.44;2570690;30;139759;-40
2021/10/20 10:01:59;;;;;;;8.43;4.43;;;16.50;99.90;;;15.24;82.53;100216.84;2568838;30;138675;-40
2021/10/20 10:04:29;;;;;;;8.52;4.03;;;16.50;99.90;;;15.23;82.29;100198.72;2567912;30;139532;-39
2021/10/20 10:06:57;;;;;;;5.70;3.97;;;16.50;99.90;;;15.26;83.02;100213.84;2569049;30;137428;-40
2021/10/20 10:09:28;;;;;;;6.90;4.20;;;16.50;99.90;;;15.27;81.84;100196.28;2569379;30;136874;-40
2021/10/20 10:12:15;;;;;;;5.63;3.67;;;16.50;99.90;;;15.26;82.46;100197.38;2569143;30;137587;-39